Time;durP1;ratioP1;P1;durP2;ratioP2;P2;SDS_P1;SDS_P2;PMS_P1;PMS_P2;Temp;Humidity;BMP_temperature;BMP_pressure;BME280_temperature;BME280_humidity;BME280_pressure;Samples;Min_cycle;Max_cycle;Signal;HPM_P1;HPM_P2
2023/04/11 00:01:44;;;;;;;10.77;6.88;;;;;;;9.58;76.82;99091.59;4947634;28;20053;-87
2023/04/11 00:04:10;;;;;;;11.82;7.90;;;;;;;9.58;76.96;99091.59;4948197;28;20125;-86
2023/04/11 00:06:35;;;;;;;11.68;8.43;;;;;;;9.53;76.60;99080.88;4947089;28;20030;-86
2023/04/11 00:09:01;;;;;;;14.57;9.13;;;;;;;9.47;76.79;99077.34;4946725;28;20065;-86
2023/04/11 00:11:26;;;;;;;14.98;8.77;;;;;;;9.61;76.71;99084.91;4946703;28;20037;-86
2023/04/11 00:13:57;;;;;;;17.17;9.80;;;;;;;9.72;76.60;99091.88;4947004;28;20401;-86
2023/04/11 00:16:24;;;;;;;19.92;10.32;;;;;;;9.60;76.97;99076.00;4948400;28;20125;-86
2023/04/11 00:18:50;;;;;;;13.35;9.13;;;;;;;9.53;77.14;99077.38;4947447;28;20085;-86
2023/04/11 00:21:16;;;;;;;12.82;8.48;;;;;;;9.45;76.76;99076.81;4962046;28;20034;-86
2023/04/11 00:23:41;;;;;;;14.77;9.63;;;;;;;9.55;75.61;99073.34;4946789;28;20073;-86
2023/04/11 00:26:07;;;;;;;14.82;8.20;;;;;;;9.57;75.27;99060.44;4945932;28;20038;-86
2023/04/11 00:28:33;;;;;;;13.18;8.27;;;;;;;9.59;75.23;99068.25;4946028;28;20050;-87
2023/04/11 00:30:58;;;;;;;12.25;7.78;;;;;;;9.63;75.10;99071.97;4946271;28;20038;-85
2023/04/11 00:33:24;;;;;;;11.40;7.88;;;;;;;9.62;75.30;99067.69;4947593;28;20045;-86
2023/04/11 00:35:50;;;;;;;11.43;7.57;;;;;;;9.64;75.70;99066.34;4979281;28;20033;-85
2023/04/11 00:38:15;;;;;;;11.68;7.57;;;;;;;9.66;75.71;99049.94;4947400;28;20030;-86
2023/04/11 00:40:41;;;;;;;16.27;8.10;;;;;;;9.59;77.48;99057.50;4962910;28;20030;-86
2023/04/11 00:43:07;;;;;;;14.80;8.68;;;;;;;9.50;77.48;99057.19;4946984;28;20039;-86
2023/04/11 00:45:32;;;;;;;13.07;8.77;;;;;;;9.50;77.76;99052.66;4946700;28;20483;-86
2023/04/11 00:47:58;;;;;;;10.70;7.85;;;;;;;9.60;76.92;99057.19;4946619;28;20500;-86
2023/04/11 00:50:23;;;;;;;13.23;8.27;;;;;;;9.67;76.15;99056.91;4947170;28;20042;-87
2023/04/11 00:52:50;;;;;;;12.85;8.30;;;;;;;9.67;76.30;99047.00;4946273;28;20508;-86
2023/04/11 00:55:15;;;;;;;13.90;8.05;;;;;;;9.67;75.18;99041.63;4962482;28;20030;-87
2023/04/11 00:57:41;;;;;;;12.73;7.95;;;;;;;9.67;75.88;99041.63;4962781;28;20435;-86
2023/04/11 01:00:09;;;;;;;13.73;7.90;;;;;;;9.73;75.73;99045.09;4946811;28;20034;-87
2023/04/11 01:02:36;;;;;;;12.00;7.72;;;;;;;9.50;77.16;99035.69;4947748;28;20110;-87
2023/04/11 01:05:03;;;;;;;12.35;8.25;;;;;;;9.46;77.07;99048.88;4946921;28;20457;-87
2023/04/11 01:07:29;;;;;;;13.65;9.18;;;;;;;9.49;77.14;99050.22;4945698;28;20027;-86
2023/04/11 01:09:55;;;;;;;17.08;9.77;;;;;;;9.44;78.18;99042.16;4947696;28;20481;-86
2023/04/11 01:12:20;;;;;;;15.30;9.02;;;;;;;9.49;78.31;99050.22;4947002;28;20038;-87
2023/04/11 01:14:46;;;;;;;15.25;10.23;;;;;;;9.42;78.54;99037.06;4962679;28;20485;-87
2023/04/11 01:17:13;;;;;;;11.90;8.48;;;;;;;9.42;78.33;99039.75;4946620;28;20038;-87
2023/04/11 01:19:38;;;;;;;13.35;9.23;;;;;;;9.44;78.24;99047.53;4946905;28;20045;-87
2023/04/11 01:22:04;;;;;;;14.07;8.65;;;;;;;9.29;78.97;99027.63;4946444;28;20034;-87
2023/04/11 01:24:29;;;;;;;14.20;8.95;;;;;;;9.49;78.19;99040.28;4946053;28;20109;-86
2023/04/11 01:26:55;;;;;;;17.52;10.48;;;;;;;9.42;78.67;99025.47;4947035;28;20123;-87
2023/04/11 01:29:21;;;;;;;14.30;8.95;;;;;;;9.38;79.13;99029.78;4966239;28;20555;-86
2023/04/11 01:31:47;;;;;;;14.75;9.30;;;;;;;9.43;78.94;99027.91;4950402;28;20027;-87
2023/04/11 01:34:13;;;;;;;14.68;9.43;;;;;;;9.49;77.79;99018.78;4950086;28;20026;-87
2023/04/11 01:36:39;;;;;;;13.77;9.75;;;;;;;9.46;77.77;99015.81;4949815;28;20042;-87
2023/04/11 01:39:05;;;;;;;14.93;9.10;;;;;;;9.44;77.63;99015.28;4950033;28;20034;-86
2023/04/11 01:41:30;;;;;;;14.50;9.73;;;;;;;9.51;76.48;99013.13;4949822;28;20393;-86
2023/04/11 01:43:56;;;;;;;14.00;9.02;;;;;;;9.57;75.02;99009.38;4948888;28;20077;-87
2023/04/11 01:46:22;;;;;;;13.23;8.43;;;;;;;9.41;74.07;99003.19;4948748;28;20038;-87
2023/04/11 01:48:49;;;;;;;13.18;8.93;;;;;;;9.54;74.61;99003.72;4965399;28;20034;-87
2023/04/11 01:51:14;;;;;;;14.00;9.32;;;;;;;9.46;74.06;98984.38;4966985;28;20511;-86
2023/04/11 01:53:40;;;;;;;14.32;9.60;;;;;;;9.50;73.80;98984.63;4949011;28;20042;-87
2023/04/11 01:56:06;;;;;;;14.65;8.88;;;;;;;9.53;73.66;98984.09;4949339;28;20038;-87
2023/04/11 01:58:31;;;;;;;14.43;8.98;;;;;;;9.53;73.67;98980.63;4965911;28;20468;-87
2023/04/11 02:00:57;;;;;;;13.02;9.38;;;;;;;9.59;73.21;98979.53;4949793;28;20042;-87
2023/04/11 02:03:22;;;;;;;13.48;8.85;;;;;;;9.68;73.53;98991.34;4948336;28;20030;-87
2023/04/11 02:05:48;;;;;;;12.60;8.60;;;;;;;9.62;74.12;98995.09;4948974;28;20026;-87
2023/04/11 02:08:13;;;;;;;14.60;9.68;;;;;;;9.47;73.59;98977.94;4948754;28;20123;-87
2023/04/11 02:10:39;;;;;;;19.48;10.52;;;;;;;9.44;74.69;98991.91;4948581;28;20065;-87
2023/04/11 02:13:04;;;;;;;12.88;9.18;;;;;;;9.51;73.22;98983.56;4949549;28;20038;-86
2023/04/11 02:15:30;;;;;;;16.10;9.60;;;;;;;9.55;72.72;98989.22;4965005;28;20022;-87
2023/04/11 02:17:55;;;;;;;14.88;9.55;;;;;;;9.42;74.22;98985.19;4949311;28;20031;-87
2023/04/11 02:20:22;;;;;;;13.20;9.88;;;;;;;9.50;74.13;98969.34;4947924;28;20041;-87
2023/04/11 02:22:47;;;;;;;15.05;9.30;;;;;;;9.46;75.51;98981.72;4947661;28;20038;-87
2023/04/11 02:25:13;;;;;;;16.08;10.30;;;;;;;9.51;75.68;98988.94;4948260;28;20104;-87
2023/04/11 02:27:38;;;;;;;15.40;10.48;;;;;;;9.48;74.78;98986.78;4964684;28;20046;-87
2023/04/11 02:30:07;;;;;;;16.52;10.80;;;;;;;9.37;74.78;98983.31;4949614;28;20030;-87
2023/04/11 02:32:36;;;;;;;15.57;10.27;;;;;;;9.46;73.97;98992.44;4966329;28;20065;-86
2023/04/11 02:35:03;;;;;;;16.30;10.27;;;;;;;9.34;74.96;98986.56;4965188;28;20108;-86
2023/04/11 02:37:30;;;;;;;17.33;10.77;;;;;;;9.39;76.37;98997.28;4948232;28;20114;-87
2023/04/11 02:39:56;;;;;;;15.15;10.10;;;;;;;9.20;75.96;98980.09;4948045;28;20038;-87
2023/04/11 02:42:22;;;;;;;14.32;9.77;;;;;;;9.31;74.82;98974.44;4948368;28;20038;-87
2023/04/11 02:44:47;;;;;;;16.55;10.57;;;;;;;9.42;73.53;98971.75;4964719;28;20101;-87
2023/04/11 02:47:13;;;;;;;15.15;9.52;;;;;;;9.51;73.06;98959.38;4948472;28;20041;-87
2023/04/11 02:49:40;;;;;;;14.48;9.35;;;;;;;9.54;72.85;98963.41;4948422;28;20046;-87
2023/04/11 02:52:06;;;;;;;16.63;10.40;;;;;;;9.50;72.11;98963.97;4964394;28;20025;-87
2023/04/11 02:54:31;;;;;;;15.70;10.20;;;;;;;9.35;73.81;98963.16;4947619;28;20034;-87
2023/04/11 02:56:57;;;;;;;13.40;9.23;;;;;;;9.25;73.96;98972.81;4948166;28;20034;-87
2023/04/11 02:59:22;;;;;;;17.45;10.93;;;;;;;9.19;74.60;98960.47;4963529;28;20034;-87
2023/04/11 03:01:48;;;;;;;13.98;9.52;;;;;;;9.35;73.32;98952.41;4964584;28;20034;-87
2023/04/11 03:04:13;;;;;;;15.40;10.18;;;;;;;9.30;74.35;98939.81;4963808;28;20104;-86
2023/04/11 03:06:39;;;;;;;13.55;9.18;;;;;;;9.37;75.50;98944.91;4951767;28;20041;-87
2023/04/11 03:09:05;;;;;;;15.43;10.20;;;;;;;9.47;73.91;98951.06;4948417;28;20519;-87
2023/04/11 03:11:30;;;;;;;16.17;10.65;;;;;;;9.48;76.17;98960.75;4948012;28;20038;-87
2023/04/11 03:13:56;;;;;;;19.88;10.90;;;;;;;9.33;75.78;98959.94;4947783;28;20092;-87
2023/04/11 03:16:21;;;;;;;16.55;9.82;;;;;;;9.38;75.09;98944.63;4946971;28;20050;-87
2023/04/11 03:18:47;;;;;;;17.85;10.93;;;;;;;9.35;76.37;98955.09;4947974;28;20133;-85
2023/04/11 03:21:15;;;;;;;17.52;10.77;;;;;;;9.27;75.96;98946.50;4947205;28;20031;-86
2023/04/11 03:23:42;;;;;;;14.95;10.43;;;;;;;9.41;75.12;98944.06;4946646;28;20045;-86
2023/04/11 03:26:07;;;;;;;13.48;9.88;;;;;;;9.50;76.36;98952.38;4947051;28;20030;-86
2023/04/11 03:28:33;;;;;;;16.25;9.98;;;;;;;9.56;74.92;98961.25;4946860;28;20052;-86
2023/04/11 03:30:58;;;;;;;16.45;11.00;;;;;;;9.50;75.48;98953.22;4947661;28;20037;-86
2023/04/11 03:33:23;;;;;;;14.52;10.45;;;;;;;9.53;74.49;98956.44;4964702;28;20473;-86
2023/04/11 03:35:49;;;;;;;18.75;11.38;;;;;;;9.67;74.66;98968.19;4946745;28;20037;-87
2023/04/11 03:38:14;;;;;;;16.35;10.95;;;;;;;9.54;74.67;98964.19;4948087;28;20030;-87
2023/04/11 03:40:40;;;;;;;17.48;10.10;;;;;;;9.51;74.48;98964.75;4948329;28;20100;-86
2023/04/11 03:43:05;;;;;;;17.70;10.98;;;;;;;9.58;73.50;98961.78;4946919;28;20034;-86
2023/04/11 03:48:20;;;;;;;14.45;10.05;;;;;;;9.41;72.96;98946.75;4963164;28;20034;-86
2023/04/11 03:50:45;;;;;;;14.70;9.65;;;;;;;9.35;73.43;98945.16;4962712;28;20031;-86
2023/04/11 03:53:10;;;;;;;16.98;10.20;;;;;;;9.41;73.55;98954.81;4961781;28;20041;-87
2023/04/11 03:55:36;;;;;;;15.90;10.20;;;;;;;9.26;73.97;98947.59;4946884;28;20030;-87
2023/04/11 03:58:01;;;;;;;17.40;11.20;;;;;;;9.34;74.44;98943.56;4946835;28;20579;-86
2023/04/11 04:00:27;;;;;;;14.77;10.20;;;;;;;9.39;73.59;98938.16;4963065;28;20034;-86
2023/04/11 04:02:52;;;;;;;14.13;9.55;;;;;;;9.14;73.71;98930.16;4963757;28;20076;-86
2023/04/11 04:05:18;;;;;;;16.10;10.70;;;;;;;9.12;74.39;98926.94;4946838;28;20030;-85
2023/04/11 04:07:43;;;;;;;16.63;9.82;;;;;;;9.27;74.08;98926.91;4947339;28;20062;-85
2023/04/11 04:10:09;;;;;;;18.30;10.90;;;;;;;9.25;73.85;98921.00;4947693;28;20030;-86
2023/04/11 04:12:34;;;;;;;15.90;10.30;;;;;;;9.20;73.75;98912.94;4964332;28;20066;-87
2023/04/11 04:15:00;;;;;;;13.07;9.13;;;;;;;9.20;74.17;98903.00;4946827;28;20481;-88
2023/04/11 04:17:26;;;;;;;15.40;9.30;;;;;;;9.31;73.21;98909.16;4948039;28;20025;-88
2023/04/11 04:19:51;;;;;;;15.43;10.82;;;;;;;9.25;73.63;98915.63;4946949;28;20044;-87
2023/04/11 04:22:16;;;;;;;15.07;10.05;;;;;;;9.20;73.50;98902.22;4946385;28;20097;-87
2023/04/11 04:24:44;;;;;;;19.38;10.63;;;;;;;9.26;74.87;98919.94;4947175;28;20125;-87
2023/04/11 04:27:12;;;;;;;15.70;9.98;;;;;;;9.23;74.06;98909.72;4963972;28;20531;-87
2023/04/11 04:29:44;;;;;;;13.15;9.48;;;;;;;9.21;73.42;98899.22;4962642;28;20050;-87
2023/04/11 04:32:10;;;;;;;16.13;10.00;;;;;;;9.17;72.69;98895.50;4947956;28;20053;-87
2023/04/11 04:34:48;;;;;;;16.13;9.90;;;;;;;9.23;73.23;98897.06;4963689;28;20031;-87
2023/04/11 04:37:20;;;;;;;14.30;9.32;;;;;;;9.22;73.25;98889.31;4948243;28;20121;-86
2023/04/11 04:39:55;;;;;;;14.80;9.27;;;;;;;9.24;73.11;98890.63;4947778;28;20460;-86
2023/04/11 04:42:24;;;;;;;17.25;10.80;;;;;;;9.25;74.17;98880.69;4946297;28;20121;-88
2023/04/11 04:44:50;;;;;;;13.82;10.23;;;;;;;9.20;73.44;98880.72;4946358;28;20516;-86
2023/04/11 04:47:16;;;;;;;15.90;10.15;;;;;;;9.24;74.26;98879.09;4948213;28;20034;-86
2023/04/11 04:49:42;;;;;;;15.88;10.00;;;;;;;9.35;73.40;98894.09;4962526;28;20065;-86
2023/04/11 04:52:07;;;;;;;14.93;9.45;;;;;;;9.44;73.39;98886.28;4963146;28;20038;-87
2023/04/11 04:54:33;;;;;;;15.52;9.98;;;;;;;9.26;73.45;98880.44;4962769;28;20519;-86
2023/04/11 04:57:00;;;;;;;14.40;9.07;;;;;;;9.30;72.45;98872.63;4956052;28;20049;-87
2023/04/11 04:59:25;;;;;;;14.00;9.90;;;;;;;9.43;72.07;98880.13;4947485;28;20133;-87
2023/04/11 05:01:52;;;;;;;14.45;8.95;;;;;;;9.41;73.19;98874.22;4964903;28;20489;-89
2023/04/11 05:04:18;;;;;;;15.02;9.82;;;;;;;9.59;72.02;98885.47;4953707;28;20039;-88
2023/04/11 05:06:44;;;;;;;13.93;8.45;;;;;;;9.59;72.09;98870.13;4970572;28;20119;-95
2023/04/11 05:09:22;;;;;;;16.92;9.55;;;;;;;9.78;72.13;98881.09;4971019;28;20085;-95
2023/04/11 05:11:50;;;;;;;17.05;11.23;;;;;;;9.77;73.51;98876.78;4955108;28;20105;-93
2023/04/11 05:14:16;;;;;;;15.60;9.93;;;;;;;9.75;71.63;98876.25;4955801;28;20031;-94
2023/04/11 05:16:41;;;;;;;15.85;8.95;;;;;;;9.71;71.46;98859.06;4954811;28;20488;-93
2023/04/11 05:19:10;;;;;;;18.08;11.00;;;;;;;9.88;72.56;98878.34;4957554;28;20025;-94
2023/04/11 05:21:36;;;;;;;13.05;9.68;;;;;;;9.86;71.33;98859.00;4958056;28;20053;-96
2023/04/11 05:24:08;;;;;;;13.95;10.23;;;;;;;9.81;71.23;98850.94;4980975;28;20038;-94
2023/04/11 05:26:34;;;;;;;15.90;9.70;;;;;;;9.88;71.10;98859.53;4990864;28;20038;-92
2023/04/11 05:29:03;;;;;;;17.08;10.02;;;;;;;9.90;71.06;98851.19;4977440;28;20046;-93
2023/04/11 05:31:29;;;;;;;14.73;9.93;;;;;;;9.97;71.05;98872.41;4997301;28;20074;-96
2023/04/11 05:34:05;;;;;;;19.05;9.77;;;;;;;10.14;69.55;98882.78;4976318;28;20045;-93
2023/04/11 05:36:32;;;;;;;13.82;9.05;;;;;;;10.18;69.55;98876.56;5007808;28;20038;-95
2023/04/11 05:38:58;;;;;;;18.30;12.10;;;;;;;10.10;69.45;98864.50;4973777;28;20485;-95
2023/04/11 05:41:25;;;;;;;14.43;9.57;;;;;;;10.01;70.28;98865.38;4976825;28;20046;-93
2023/04/11 05:43:51;;;;;;;14.98;9.60;;;;;;;9.74;70.84;98841.59;4973992;28;20042;-94
2023/04/11 05:46:16;;;;;;;17.25;9.68;;;;;;;9.96;70.50;98860.84;4972862;28;20049;-95
2023/04/11 05:48:42;;;;;;;13.45;8.93;;;;;;;9.87;70.41;98844.47;4973380;28;20501;-91
2023/04/11 05:51:09;;;;;;;13.10;9.10;;;;;;;9.91;70.82;98845.50;4979000;28;20042;-94
2023/04/11 05:53:38;;;;;;;13.55;9.30;;;;;;;10.00;70.65;98845.75;4977020;28;20046;-94
2023/04/11 05:56:04;;;;;;;14.85;9.05;;;;;;;10.16;70.25;98851.84;4970790;28;20069;-87
2023/04/11 05:58:30;;;;;;;15.60;10.55;;;;;;;10.12;69.87;98823.88;4984790;28;20090;-94
2023/04/11 06:01:06;;;;;;;12.70;8.65;;;;;;;10.17;68.34;98828.41;4972407;28;20045;-96
2023/04/11 06:03:34;;;;;;;15.38;8.80;;;;;;;10.36;69.52;98861.72;4995603;28;20130;-91
2023/04/11 06:06:01;;;;;;;13.77;9.18;;;;;;;10.21;69.26;98846.44;4956985;28;20058;-95
2023/04/11 06:08:28;;;;;;;12.85;8.32;;;;;;;10.17;69.92;98841.88;4990573;28;20046;-95
2023/04/11 06:10:55;;;;;;;12.95;9.05;;;;;;;10.34;70.44;98863.09;4974268;28;20090;-95
2023/04/11 06:13:21;;;;;;;12.50;8.45;;;;;;;10.26;69.54;98834.84;4965818;28;20030;-96
2023/04/11 06:16:02;;;;;;;13.75;8.80;;;;;;;10.11;68.49;98820.41;4978841;28;20030;-96
2023/04/11 06:18:27;;;;;;;14.48;8.75;;;;;;;10.40;69.27;98856.59;4956954;28;20070;-96
2023/04/11 06:20:53;;;;;;;13.95;8.60;;;;;;;10.38;68.18;98851.47;4938790;28;20042;-93
2023/04/11 06:23:18;;;;;;;13.90;8.50;;;;;;;10.48;69.20;98861.38;4938345;28;20469;-95
2023/04/11 06:25:44;;;;;;;12.13;8.38;;;;;;;10.44;69.95;98833.41;4942695;28;20042;-93
2023/04/11 06:28:22;;;;;;;13.90;8.95;;;;;;;10.43;67.52;98826.41;4937274;28;20051;-95
2023/04/11 06:38:29;;;;;;;14.13;8.90;;;;;;;10.53;68.67;98855.94;4965900;29;20058;-91
2023/04/11 06:40:56;;;;;;;13.80;8.95;;;;;;;10.40;68.63;98843.91;4949639;29;20094;-93
2023/04/11 06:43:22;;;;;;;15.75;7.47;;;;;;;10.38;68.62;98829.94;4918711;29;20142;-94
2023/04/11 06:45:48;;;;;;;14.75;9.05;;;;;;;10.62;67.87;98834.59;4930914;29;20083;-93
2023/04/11 06:48:19;;;;;;;16.30;8.82;;;;;;;10.83;66.52;98846.00;4934613;28;20050;-95
2023/04/11 06:51:07;;;;;;;13.00;8.73;;;;;;;11.02;66.95;98856.84;4974232;28;20059;-93
2023/04/11 06:53:33;;;;;;;16.77;9.73;;;;;;;11.06;67.23;98855.19;4929743;29;20058;-93
2023/04/11 06:56:04;;;;;;;13.00;9.02;;;;;;;10.89;66.27;98823.31;4930914;29;20023;-95
2023/04/11 06:58:31;;;;;;;23.08;13.75;;;;;;;11.06;66.06;98829.09;4937278;28;20108;-95
2023/04/11 07:00:58;;;;;;;25.65;13.98;;;;;;;11.17;66.83;98834.38;4929393;29;20043;-94
2023/04/11 07:03:24;;;;;;;12.93;8.77;;;;;;;11.15;65.71;98833.84;4938089;28;20039;-94
2023/04/11 07:05:50;;;;;;;22.20;14.60;;;;;;;11.08;66.79;98807.22;4957247;28;20046;-94
2023/04/11 07:08:15;;;;;;;13.95;9.30;;;;;;;11.02;66.54;98828.06;4959110;28;20062;-93
2023/04/11 07:10:44;;;;;;;14.15;9.05;;;;;;;11.20;67.68;98825.69;4955655;28;20034;-93
2023/04/11 07:13:12;;;;;;;12.75;8.85;;;;;;;11.10;67.11;98819.34;4956481;28;20034;-94
2023/04/11 07:15:42;;;;;;;13.15;8.27;;;;;;;11.24;66.19;98821.34;4956609;28;20038;-96
2023/04/11 07:18:33;;;;;;;14.40;9.05;;;;;;;11.17;66.58;98818.22;4978117;28;20026;-96
2023/04/11 07:21:23;;;;;;;13.90;8.90;;;;;;;10.82;67.00;98796.72;4990735;28;20038;-96
2023/04/11 07:23:49;;;;;;;11.88;7.65;;;;;;;11.17;66.06;98831.69;4947034;28;20043;-94
2023/04/11 07:26:17;;;;;;;11.40;7.57;;;;;;;11.43;66.00;98832.19;4950654;29;20043;-95
2023/04/11 07:28:46;;;;;;;11.00;7.65;;;;;;;11.24;66.31;98810.56;4932351;29;20080;-96
2023/04/11 07:31:16;;;;;;;13.02;7.85;;;;;;;11.38;65.06;98802.59;4910627;29;20036;-96
2023/04/11 07:33:41;;;;;;;11.35;8.50;;;;;;;11.48;64.67;98800.59;4894696;29;20606;-96
2023/04/11 07:36:10;;;;;;;12.93;8.07;;;;;;;11.51;64.95;98788.41;4894935;29;20107;-95
2023/04/11 07:38:36;;;;;;;13.95;7.97;;;;;;;11.63;63.73;98801.50;4908548;29;20039;-92
2023/04/11 07:41:02;;;;;;;11.57;8.52;;;;;;;11.69;65.89;98803.03;4909560;29;20157;-89
2023/04/11 07:43:28;;;;;;;15.10;9.65;;;;;;;11.58;65.45;98775.41;4908874;29;20498;-89
2023/04/11 07:45:54;;;;;;;12.85;9.52;;;;;;;11.60;68.13;98807.44;4910531;29;20128;-90
2023/04/11 07:48:20;;;;;;;15.82;10.10;;;;;;;11.52;68.08;98798.91;4907027;29;20043;-89
2023/04/11 07:51:11;;;;;;;14.38;9.55;;;;;;;11.67;66.95;98822.19;4906326;29;20036;-90
2023/04/11 07:53:42;;;;;;;13.68;8.70;;;;;;;11.58;63.62;98802.38;4908295;29;20079;-89
2023/04/11 07:56:08;;;;;;;12.90;7.95;;;;;;;11.61;63.58;98801.78;4904878;29;20050;-88
2023/04/11 07:58:43;;;;;;;14.85;9.25;;;;;;;11.72;64.62;98815.91;4924121;29;20036;-90
2023/04/11 08:01:26;;;;;;;16.10;9.10;;;;;;;11.65;63.47;98797.41;4908500;29;20056;-87
2023/04/11 08:10:41;;;;;;;14.52;9.43;;;;;;;11.57;64.72;98811.53;4904829;28;20034;-94
2023/04/11 08:13:07;;;;;;;12.32;9.20;;;;;;;11.63;65.19;98802.28;4932600;28;20038;-95
2023/04/11 08:15:35;;;;;;;15.10;8.85;;;;;;;11.64;63.92;98797.69;4948983;28;20385;-95
2023/04/11 08:18:04;;;;;;;14.15;8.43;;;;;;;11.62;62.42;98775.59;4932820;28;20038;-94
2023/04/11 08:20:30;;;;;;;15.38;8.77;;;;;;;11.83;62.93;98792.31;4967393;28;20034;-94
2023/04/11 08:23:05;;;;;;;13.73;8.55;;;;;;;11.79;61.78;98789.41;4931712;28;20398;-96
2023/04/11 08:25:31;;;;;;;12.82;8.52;;;;;;;11.98;62.99;98780.56;4970783;28;20038;-93
2023/04/11 08:27:57;;;;;;;19.45;9.52;;;;;;;12.13;60.78;98783.00;4955516;28;20068;-93
2023/04/11 08:30:23;;;;;;;12.98;8.63;;;;;;;12.08;61.25;98783.91;4974655;28;20061;-95
2023/04/11 08:32:48;;;;;;;13.65;8.82;;;;;;;12.15;61.40;98782.72;4959393;28;20038;-95
2023/04/11 08:35:16;;;;;;;13.07;8.35;;;;;;;12.09;61.05;98774.69;4959943;28;20085;-95
2023/04/11 08:37:43;;;;;;;13.82;8.27;;;;;;;12.03;61.78;98764.28;4956003;28;20046;-95
2023/04/11 08:40:12;;;;;;;15.13;9.57;;;;;;;11.94;61.22;98793.81;4953887;28;20069;-94
2023/04/11 08:42:42;;;;;;;27.58;18.52;;;;;;;11.71;60.21;98771.19;4956399;28;20124;-94
2023/04/11 08:45:28;;;;;;;17.02;9.98;;;;;;;11.79;60.61;98748.16;4957131;28;20046;-93
2023/04/11 08:48:11;;;;;;;13.00;9.05;;;;;;;11.73;60.79;98747.41;4991220;28;20039;-91
2023/04/11 08:50:38;;;;;;;13.63;9.68;;;;;;;11.89;61.18;98761.50;4960327;28;20449;-94
2023/04/11 08:53:04;;;;;;;15.45;10.00;;;;;;;11.80;60.18;98722.78;4954375;28;20057;-95
2023/04/11 08:55:32;;;;;;;13.18;9.82;;;;;;;11.70;60.39;98734.50;4955877;28;20034;-95
2023/04/11 08:57:58;;;;;;;13.05;9.85;;;;;;;12.02;60.15;98743.81;4953959;28;20045;-93
2023/04/11 09:03:55;;;;;;;20.67;10.80;;;;;;;12.11;60.54;98755.50;4969722;28;20073;-92
2023/04/11 09:06:23;;;;;;;17.58;11.48;;;;;;;12.19;60.24;98745.97;4973326;28;20049;-92
2023/04/11 09:08:52;;;;;;;17.95;11.65;;;;;;;12.05;60.79;98711.63;4959434;28;20037;-92
2023/04/11 09:11:32;;;;;;;17.55;10.85;;;;;;;12.13;60.02;98729.84;4968418;28;20035;-90
2023/04/11 09:14:31;;;;;;;31.02;14.93;;;;;;;12.27;58.69;98732.59;5093081;23;20450;-95
2023/04/11 09:17:23;;;;;;;15.82;10.15;;;;;;;12.23;58.98;98706.50;4985835;28;20054;-93
2023/04/11 09:19:54;;;;;;;19.73;11.32;;;;;;;12.38;59.25;98708.91;4973627;28;20043;-93
2023/04/11 09:22:23;;;;;;;18.83;10.85;;;;;;;12.54;57.24;98709.47;4954876;28;20035;-96
2023/04/11 09:25:13;;;;;;;22.88;11.65;;;;;;;12.42;57.03;98712.63;4967431;28;20042;-96
2023/04/11 09:31:54;;;;;;;;;;;;;;;;;;;;;
2023/04/11 09:34:26;;;;;;;14.25;10.05;;;;;;;12.58;57.71;98728.56;4990572;28;20078;-93
2023/04/11 09:36:58;;;;;;;16.45;9.82;;;;;;;12.34;57.63;98692.50;4952750;28;20039;-95
2023/04/11 09:39:27;;;;;;;14.43;9.48;;;;;;;12.47;58.08;98692.84;4964854;28;20031;-93
2023/04/11 09:42:01;;;;;;;13.98;9.25;;;;;;;12.37;57.36;98696.53;4962216;28;20030;-92
2023/04/11 09:44:35;;;;;;;18.58;9.77;;;;;;;12.32;59.10;98692.00;4958185;28;20043;-93
2023/04/11 09:47:01;;;;;;;15.27;10.10;;;;;;;12.39;58.72;98686.25;4950274;28;20043;-95
2023/04/11 09:49:30;;;;;;;18.80;11.73;;;;;;;12.39;58.36;98667.34;4954921;28;20537;-94
2023/04/11 09:51:56;;;;;;;15.57;9.57;;;;;;;12.49;60.85;98663.63;4953541;28;20038;-93
2023/04/11 09:54:22;;;;;;;14.18;9.07;;;;;;;12.39;57.74;98647.63;4975626;28;20058;-96
2023/04/11 09:56:50;;;;;;;13.20;8.93;;;;;;;12.44;59.10;98661.03;4954241;28;20085;-95
2023/04/11 09:59:17;;;;;;;15.45;9.02;;;;;;;12.63;59.23;98669.84;4973735;28;20472;-95
2023/04/11 10:01:46;;;;;;;14.25;8.02;;;;;;;12.60;55.96;98658.88;4976658;28;20042;-95
2023/04/11 10:04:12;;;;;;;11.00;7.32;;;;;;;12.58;53.29;98650.25;4995914;28;20039;-95
2023/04/11 10:07:12;;;;;;;10.60;7.28;;;;;;;12.81;53.10;98664.66;4990928;28;20678;-91
2023/04/11 10:09:43;;;;;;;10.02;5.93;;;;;;;12.41;52.02;98629.22;4980594;28;20038;-91
2023/04/11 10:12:11;;;;;;;9.23;6.28;;;;;;;12.63;54.09;98650.94;4948568;28;20034;-92
2023/04/11 10:14:41;;;;;;;9.07;5.65;;;;;;;12.82;51.58;98633.84;4987105;28;20081;-93
2023/04/11 10:17:19;;;;;;;11.15;6.85;;;;;;;12.99;54.84;98650.25;4957549;28;20061;-91
2023/04/11 10:19:46;;;;;;;8.45;5.40;;;;;;;12.58;50.69;98628.66;4969803;28;20038;-94
2023/04/11 10:22:48;;;;;;;6.13;4.57;;;;;;;12.54;51.86;98650.06;4956542;28;20050;-92
2023/04/11 10:25:26;;;;;;;8.32;5.20;;;;;;;12.02;51.71;98609.69;4990669;28;20034;-89
2023/04/11 10:27:53;;;;;;;8.90;5.28;;;;;;;12.30;54.14;98631.31;4956159;28;20066;-90
2023/04/11 10:31:02;;;;;;;6.78;5.10;;;;;;;12.36;51.08;98632.81;4957714;28;20030;-90
2023/04/11 10:34:01;;;;;;;8.05;5.75;;;;;;;12.22;54.80;98594.22;4998341;28;20125;-96
2023/04/11 10:37:02;;;;;;;9.48;4.60;;;;;;;12.30;52.27;98578.13;4992463;28;20042;-96
2023/04/11 10:39:50;;;;;;;7.13;4.60;;;;;;;12.58;51.81;98607.06;4966930;28;20065;-94
2023/04/11 10:42:31;;;;;;;10.63;5.10;;;;;;;12.60;51.17;98605.66;4983912;28;20113;-92
2023/04/11 10:45:20;;;;;;;6.32;4.15;;;;;;;12.68;51.03;98591.44;5035440;23;20063;-94
2023/04/11 10:54:02;;;;;;;7.60;4.75;;;;;;;13.01;49.45;98579.66;4990078;28;20042;-95
2023/04/11 10:56:53;;;;;;;8.05;4.32;;;;;;;13.02;50.56;98549.63;4960254;28;20101;-96
2023/04/11 10:59:36;;;;;;;17.05;6.25;;;;;;;13.07;50.16;98575.75;4959063;28;20058;-94
2023/04/11 11:02:13;;;;;;;9.13;5.70;;;;;;;13.25;48.06;98566.69;4989553;28;20026;-95
2023/04/11 11:04:49;;;;;;;8.02;5.00;;;;;;;13.28;48.73;98539.06;4989038;28;20066;-91
2023/04/11 11:07:17;;;;;;;18.17;8.98;;;;;;;13.53;48.21;98542.28;4965835;28;20046;-91
2023/04/11 11:09:49;;;;;;;11.25;7.72;;;;;;;13.67;47.72;98542.97;4949453;28;20035;-89
2023/04/11 11:12:15;;;;;;;12.80;6.50;;;;;;;13.64;48.70;98540.13;4949266;28;20405;-89
2023/04/11 11:14:45;;;;;;;10.88;6.13;;;;;;;13.54;46.41;98525.72;4963610;28;20018;-90
2023/04/11 11:17:14;;;;;;;11.07;6.40;;;;;;;13.85;46.51;98537.69;4963814;28;20398;-90
2023/04/11 11:19:46;;;;;;;8.32;4.95;;;;;;;13.82;43.78;98538.28;4965879;28;20034;-87
2023/04/11 11:22:37;;;;;;;8.55;5.45;;;;;;;13.47;44.93;98511.84;4968082;28;20058;-89
2023/04/11 11:26:20;;;;;;;;;;;;;;;;;;;;;
2023/04/11 11:28:47;;;;;;;11.75;6.28;;;;;;;13.87;44.77;98536.25;4920569;29;20088;-91
2023/04/11 11:48:37;;;;;;;10.60;6.85;;;;;;;14.43;44.12;98508.75;4888973;29;20089;-91
2023/04/11 11:51:03;;;;;;;9.23;5.72;;;;;;;14.44;44.11;98485.97;4906920;29;20041;-91
2023/04/11 11:53:39;;;;;;;9.60;6.20;;;;;;;14.57;43.81;98474.25;4860383;29;20494;-90
2023/04/11 12:00:32;;;;;;;;;;;;;;;;;;;;;
2023/04/11 12:06:06;;;;;;;5.65;3.65;;;;;;;14.63;40.92;98477.59;4910300;29;20044;-92
2023/04/11 12:08:32;;;;;;;7.90;4.68;;;;;;;14.55;40.97;98477.28;4899776;29;20048;-89
2023/04/11 12:11:08;;;;;;;;;;;;;;;;;;;;;
2023/04/11 12:13:33;;;;;;;9.88;5.03;;;;;;;14.21;42.59;98466.31;4897983;29;20099;-90
2023/04/11 12:16:01;;;;;;;8.93;5.30;;;;;;;14.46;43.31;98487.25;4895219;29;20082;-88
2023/04/11 12:18:27;;;;;;;7.82;5.18;;;;;;;14.39;43.29;98465.25;4902207;29;20522;-88
2023/04/11 12:20:55;;;;;;;7.55;5.47;;;;;;;14.30;43.43;98448.22;4906436;29;20047;-89
2023/04/11 12:23:25;;;;;;;8.18;5.32;;;;;;;14.21;43.80;98442.75;4912181;29;20040;-89
2023/04/11 12:25:55;;;;;;;9.07;5.25;;;;;;;14.41;42.75;98454.91;4907251;29;20092;-89
2023/04/11 12:28:23;;;;;;;11.25;7.18;;;;;;;14.51;42.93;98438.34;4925676;29;20032;-88
2023/04/11 12:30:49;;;;;;;7.43;5.45;;;;;;;14.43;44.71;98449.19;4911027;29;20066;-88
2023/04/11 12:33:15;;;;;;;6.63;4.85;;;;;;;14.63;43.38;98440.47;4909761;29;20134;-87
2023/04/11 12:35:46;;;;;;;6.97;4.45;;;;;;;14.52;42.31;98425.59;4912532;29;20618;-91
2023/04/11 12:38:11;;;;;;;6.70;4.50;;;;;;;14.43;43.12;98398.50;4907376;29;20527;-91
2023/04/11 12:40:37;;;;;;;9.68;6.78;;;;;;;14.62;42.99;98421.81;4898599;29;20035;-87